Time;durP1;ratioP1;P1;durP2;ratioP2;P2;SDS_P1;SDS_P2;PMS_P1;PMS_P2;Temp;Humidity;BMP_temperature;BMP_pressure;BME280_temperature;BME280_humidity;BME280_pressure;Samples;Min_cycle;Max_cycle;Signal;HPM_P1;HPM_P2
2024/02/09 00:00:55;;;;;;;0.70;0.70;;;;;;;7.78;93.20;96437.09;5052179;28;20029;-94
2024/02/09 00:03:22;;;;;;;0.70;0.70;;;;;;;8.00;91.28;96437.16;5048209;28;20040;-94
2024/02/09 00:05:52;;;;;;;0.70;0.70;;;;;;;7.91;92.45;96436.28;5042661;28;20051;-95
2024/02/09 00:08:22;;;;;;;0.60;0.60;;;;;;;7.94;91.58;96438.91;5054290;28;20036;-90
2024/02/09 00:10:49;;;;;;;0.70;0.70;;;;;;;8.41;88.23;96435.47;5058371;28;20064;-92
2024/02/09 00:13:15;;;;;;;0.70;0.70;;;;;;;8.68;86.06;96423.97;5032618;28;20096;-93
2024/02/09 00:15:46;;;;;;;0.70;0.70;;;;;;;9.05;83.67;96428.34;5043392;28;20048;-91
2024/02/09 00:18:15;;;;;;;0.60;0.60;;;;;;;8.62;86.58;96436.34;5060735;28;20049;-92
2024/02/09 00:20:47;;;;;;;0.70;0.70;;;;;;;8.49;87.71;96430.19;5082961;28;20092;-93
2024/02/09 00:23:16;;;;;;;0.70;0.70;;;;;;;9.15;82.90;96423.03;5047763;28;20133;-94
2024/02/09 00:25:41;;;;;;;0.60;0.60;;;;;;;9.03;83.28;96427.47;5036742;28;20044;-96
2024/02/09 00:28:11;;;;;;;0.60;0.60;;;;;;;9.08;82.71;96428.34;5052422;28;20021;-96
2024/02/09 00:30:41;;;;;;;0.60;0.60;;;;;;;9.12;83.31;96420.34;5048750;28;20050;-95
2024/02/09 00:33:10;;;;;;;0.70;0.70;;;;;;;8.71;85.26;96429.25;5030785;28;20040;-94
2024/02/09 00:35:40;;;;;;;0.60;0.60;;;;;;;8.68;86.45;96412.47;5036149;28;20029;-94
2024/02/09 00:38:11;;;;;;;0.70;0.70;;;;;;;8.78;85.39;96390.28;5038450;28;20041;-94
2024/02/09 00:40:42;;;;;;;0.70;0.70;;;;;;;8.69;86.28;96390.31;5043179;28;20028;-93
2024/02/09 00:43:11;;;;;;;0.70;0.70;;;;;;;8.39;88.03;96375.28;5043962;28;20117;-93
2024/02/09 00:45:36;;;;;;;0.70;0.70;;;;;;;8.20;89.27;96377.00;5050104;28;20024;-94
2024/02/09 00:48:06;;;;;;;0.65;0.65;;;;;;;8.03;90.69;96382.28;5054000;28;20017;-94
2024/02/09 00:50:32;;;;;;;0.70;0.70;;;;;;;8.12;90.88;96381.41;5052420;28;20147;-95
2024/02/09 00:53:05;;;;;;;0.70;0.70;;;;;;;7.98;90.94;96392.91;5050959;28;20040;-94
2024/02/09 00:55:33;;;;;;;0.70;0.70;;;;;;;8.06;90.43;96392.03;5038490;28;20033;-94
2024/02/09 00:57:59;;;;;;;0.70;0.70;;;;;;;7.97;92.00;96395.56;5030782;28;20045;-94
2024/02/09 01:00:30;;;;;;;0.70;0.70;;;;;;;7.90;93.06;96383.16;5062072;28;20066;-95
2024/02/09 01:02:59;;;;;;;0.70;0.70;;;;;;;8.15;91.43;96379.66;5027128;28;20092;-94
2024/02/09 01:05:24;;;;;;;0.70;0.70;;;;;;;8.35;88.71;96373.47;5026849;28;20036;-94
2024/02/09 01:07:50;;;;;;;0.70;0.70;;;;;;;8.18;90.15;96384.94;5068865;28;20433;-94
2024/02/09 01:10:16;;;;;;;0.70;0.70;;;;;;;8.11;90.79;96379.66;5036800;28;20033;-93
2024/02/09 02:46:16;;;;;;;0.70;0.70;;;;;;;7.82;96.62;96359.25;5051690;28;20047;-93
2024/02/09 03:05:14;;;;;;;0.60;0.60;;;;;;;7.86;98.01;96338.94;5039251;28;20063;-94
2024/02/09 03:07:42;;;;;;;0.70;0.70;;;;;;;7.77;97.85;96334.47;5044551;28;20033;-95
2024/02/09 03:10:09;;;;;;;0.60;0.60;;;;;;;7.81;98.66;96319.41;5009725;28;20044;-95
2024/02/09 03:12:38;;;;;;;0.70;0.70;;;;;;;7.83;98.16;96331.81;5058663;28;20019;-93
2024/02/09 03:15:11;;;;;;;0.70;0.70;;;;;;;7.79;98.30;96316.78;5063349;28;20032;-94
2024/02/09 03:17:43;;;;;;;0.70;0.70;;;;;;;7.74;98.49;96307.94;5024423;28;20102;-94
2024/02/09 03:20:10;;;;;;;0.70;0.70;;;;;;;7.77;99.27;96307.94;5037532;28;20047;-93
2024/02/09 03:22:35;;;;;;;0.70;0.70;;;;;;;7.82;99.67;96306.16;5036008;28;20029;-93
2024/02/09 03:25:03;;;;;;;0.70;0.70;;;;;;;7.74;99.60;96309.69;5050219;28;20414;-93
2024/02/09 03:27:33;;;;;;;0.70;0.70;;;;;;;7.74;99.62;96297.31;5039486;28;20044;-93
2024/02/09 03:30:00;;;;;;;0.70;0.70;;;;;;;7.84;99.05;96298.19;5052005;28;20055;-93
2024/02/09 03:32:32;;;;;;;0.70;0.70;;;;;;;7.76;98.98;96299.97;5051594;28;20024;-93
2024/02/09 03:34:59;;;;;;;0.70;0.70;;;;;;;7.65;98.62;96295.53;5058132;28;20297;-92
2024/02/09 03:37:26;;;;;;;0.80;0.80;;;;;;;7.60;99.36;96291.09;5030534;28;20467;-94
2024/02/09 03:39:55;;;;;;;0.70;0.70;;;;;;;7.56;99.11;96292.84;5037675;28;20459;-92
2024/02/09 03:42:23;;;;;;;0.70;0.70;;;;;;;7.56;99.37;96286.66;5035171;28;20033;-93
2024/02/09 03:44:50;;;;;;;0.70;0.70;;;;;;;7.57;99.38;96288.44;5051209;28;20049;-91
2024/02/09 03:47:19;;;;;;;0.70;0.70;;;;;;;7.60;99.72;96284.03;5052089;28;20075;-93
2024/02/09 03:49:47;;;;;;;0.70;0.70;;;;;;;7.62;99.77;96286.69;5055040;28;20048;-93
2024/02/09 03:52:14;;;;;;;0.60;0.60;;;;;;;7.64;99.99;96290.22;5027607;28;20052;-93
2024/02/09 03:54:39;;;;;;;0.70;0.70;;;;;;;7.68;99.72;96294.66;5045370;28;20039;-93
2024/02/09 03:57:05;;;;;;;0.70;0.70;;;;;;;7.70;99.86;96296.41;5026268;28;20084;-92
2024/02/09 03:59:30;;;;;;;0.70;0.70;;;;;;;7.68;100.00;96292.00;5035202;28;20029;-93
2024/02/09 04:01:59;;;;;;;0.65;0.65;;;;;;;8.02;99.32;96292.00;5054205;28;20478;-92
2024/02/09 04:04:28;;;;;;;0.70;0.70;;;;;;;8.08;98.92;96290.22;5020723;28;20083;-93
2024/02/09 04:06:55;;;;;;;0.70;0.70;;;;;;;8.31;98.23;96290.22;5052497;28;20044;-93
2024/02/09 04:09:21;;;;;;;0.70;0.70;;;;;;;8.37;97.93;96287.56;5031515;28;20021;-91
2024/02/09 04:11:47;;;;;;;0.70;0.70;;;;;;;8.55;96.73;96283.13;5047568;28;20042;-92
2024/02/09 04:14:15;;;;;;;0.70;0.70;;;;;;;8.59;95.92;96279.56;5049466;28;20524;-93
2024/02/09 04:16:41;;;;;;;0.70;0.70;;;;;;;8.54;95.93;96281.34;5066683;28;20035;-91
2024/02/09 04:19:07;;;;;;;0.65;0.65;;;;;;;8.57;96.30;96270.69;5067485;28;20033;-93
2024/02/09 04:21:33;;;;;;;0.70;0.70;;;;;;;8.55;95.87;96272.50;5032528;28;20103;-93
2024/02/09 04:23:58;;;;;;;0.70;0.70;;;;;;;8.64;95.79;96265.38;5052475;28;20045;-93
2024/02/09 04:26:25;;;;;;;0.70;0.70;;;;;;;8.55;96.15;96259.22;5055780;28;20040;-93
2024/02/09 04:28:54;;;;;;;0.65;0.65;;;;;;;8.51;96.79;96262.75;5058540;28;20358;-91
2024/02/09 04:31:21;;;;;;;0.70;0.70;;;;;;;8.65;96.54;96258.28;5077981;28;20038;-92
2024/02/09 04:36:33;;;;;;;0.60;0.60;;;;;;;8.67;95.52;96256.50;6105551;22;20012;-92
2024/02/09 04:38:59;;;;;;;0.70;0.70;;;;;;;8.60;96.20;96252.09;5055418;28;20114;-93
2024/02/09 04:41:26;;;;;;;;;;;;;;;8.69;95.54;96254.72;5055625;28;20014;-93
2024/02/09 04:43:53;;;;;;;0.70;0.70;;;;;;;8.78;94.82;96249.38;5032302;28;19921;-93
2024/02/09 04:46:23;;;;;;;0.70;0.70;;;;;;;8.87;94.40;96252.00;5033608;28;20041;-92
2024/02/09 04:48:52;;;;;;;0.70;0.70;;;;;;;8.85;94.46;96247.56;5021863;28;20053;-92
2024/02/09 04:51:18;;;;;;;0.70;0.70;;;;;;;8.98;93.42;96247.53;5026068;28;20061;-93
2024/02/09 04:53:45;;;;;;;0.70;0.70;;;;;;;9.05;93.26;96253.69;5000206;28;20130;-91
2024/02/09 04:56:11;;;;;;;0.70;0.70;;;;;;;9.01;93.15;96251.94;5056386;28;20037;-90
2024/02/09 04:58:36;;;;;;;0.70;0.70;;;;;;;9.07;92.61;96249.25;5000784;28;20057;-91
2024/02/09 05:01:02;;;;;;;0.70;0.70;;;;;;;9.09;92.32;96244.78;5053707;28;20018;-90
2024/02/09 05:03:28;;;;;;;0.70;0.70;;;;;;;9.16;91.86;96253.66;5022144;28;20040;-91
2024/02/09 05:05:53;;;;;;;0.60;0.60;;;;;;;9.02;92.21;96243.06;5022713;28;20034;-90
2024/02/09 05:08:19;;;;;;;0.68;0.68;;;;;;;8.96;92.82;96251.97;5056298;28;20041;-91
2024/02/09 05:10:46;;;;;;;0.70;0.70;;;;;;;8.99;92.76;96248.41;5028535;28;20030;-92
2024/02/09 05:13:12;;;;;;;;;;;;;;;9.17;91.31;96245.66;5042004;28;20014;-91
2024/02/09 05:15:38;;;;;;;0.80;0.80;;;;;;;9.05;92.16;96247.47;5034174;28;19972;-93
2024/02/09 05:18:04;;;;;;;0.70;0.70;;;;;;;9.05;92.21;96240.38;4996904;28;20037;-93
2024/02/09 05:20:29;;;;;;;0.77;0.77;;;;;;;9.13;91.57;96243.00;4995736;28;20041;-93
2024/02/09 05:22:57;;;;;;;0.70;0.70;;;;;;;8.92;92.59;96234.25;5019453;28;20029;-92
2024/02/09 05:25:23;;;;;;;0.70;0.70;;;;;;;8.87;93.32;96237.84;4990994;28;20053;-94
2024/02/09 05:27:48;;;;;;;0.70;0.70;;;;;;;8.80;93.26;96236.97;5037144;28;20068;-92
2024/02/09 05:30:14;;;;;;;0.70;0.70;;;;;;;9.06;91.84;96228.00;4995097;28;20037;-94
2024/02/09 05:32:41;;;;;;;0.70;0.70;;;;;;;9.26;89.26;96226.09;5040178;28;20038;-93
2024/02/09 05:35:08;;;;;;;0.70;0.70;;;;;;;9.46;87.92;96217.97;5036877;28;20038;-93
2024/02/09 05:37:35;;;;;;;0.73;0.73;;;;;;;9.50;87.08;96219.72;5002390;28;20117;-94
2024/02/09 05:40:01;;;;;;;0.70;0.70;;;;;;;9.74;85.13;96218.66;5026666;28;20049;-94
2024/02/09 05:42:28;;;;;;;0.70;0.70;;;;;;;9.86;84.15;96220.31;5005181;28;20076;-94
2024/02/09 05:44:53;;;;;;;0.60;0.60;;;;;;;9.75;84.85;96215.09;4999378;28;20041;-93
2024/02/09 05:47:20;;;;;;;0.50;0.50;;;;;;;9.65;85.67;96210.75;5017589;28;20126;-93
2024/02/09 05:49:47;;;;;;;0.70;0.70;;;;;;;9.81;83.88;96209.72;5040552;28;20028;-93
2024/02/09 05:52:12;;;;;;;0.70;0.70;;;;;;;9.97;83.02;96215.81;5034152;28;20030;-94
2024/02/09 05:54:41;;;;;;;;;;;;;;;9.96;83.59;96224.66;5057206;28;20029;-95
2024/02/09 05:57:08;;;;;;;;;;;;;;;9.89;82.22;96215.88;5033928;28;19917;-94
2024/02/09 05:59:34;;;;;;;0.70;0.70;;;;;;;10.02;82.15;96214.88;5011854;28;19917;-93
2024/02/09 06:02:00;;;;;;;0.70;0.70;;;;;;;10.16;81.27;96214.72;5009372;28;20042;-94
2024/02/09 06:04:26;;;;;;;0.70;0.70;;;;;;;10.17;80.93;96211.16;5010631;28;20017;-94
2024/02/09 06:06:53;;;;;;;0.75;0.75;;;;;;;10.03;81.83;96215.75;5014040;28;20025;-92
2024/02/09 06:12:01;;;;;;;0.70;0.70;;;;;;;10.16;80.78;96205.88;5937381;22;20127;-94
2024/02/09 06:14:30;;;;;;;0.60;0.60;;;;;;;10.09;81.71;96214.78;5058086;28;20037;-94
2024/02/09 06:33:08;;;;;;;0.60;0.60;;;;;;;10.21;79.84;96231.56;5758514;23;20045;-94
2024/02/09 06:35:34;;;;;;;0.63;0.63;;;;;;;10.15;78.89;96220.06;5043773;28;20048;-95
2024/02/09 06:38:00;;;;;;;0.60;0.60;;;;;;;10.25;79.62;96224.44;5041648;28;20021;-94
2024/02/09 06:40:27;;;;;;;0.60;0.60;;;;;;;10.20;79.54;96218.22;5055755;28;20065;-94
2024/02/09 06:42:53;;;;;;;0.70;0.70;;;;;;;10.39;77.95;96205.63;5019644;28;20013;-92
2024/02/09 06:45:21;;;;;;;0.60;0.60;;;;;;;10.36;78.58;96206.56;5047414;28;20198;-92
2024/02/09 06:50:29;;;;;;;0.60;0.60;;;;;;;10.17;79.85;96223.59;5826029;22;20057;-93
2024/02/09 06:52:58;;;;;;;0.70;0.70;;;;;;;10.09;79.42;96215.69;5273180;23;20061;-92
2024/02/09 06:55:25;;;;;;;0.60;0.60;;;;;;;10.02;79.80;96220.19;5038392;28;20040;-92
2024/02/09 08:00:01;;;;;;;0.70;0.70;;;;;;;9.69;80.91;96229.34;5261807;23;20057;-93
2024/02/09 08:02:36;;;;;;;0.70;0.70;;;;;;;9.85;80.09;96232.75;5042225;28;20052;-93
2024/02/09 08:05:07;;;;;;;0.70;0.70;;;;;;;9.64;82.06;96232.94;5037781;28;20050;-92
2024/02/09 08:07:34;;;;;;;0.70;0.70;;;;;;;9.48;82.08;96230.38;5009241;28;20041;-93
2024/02/09 08:10:03;;;;;;;0.70;0.70;;;;;;;9.38;83.70;96241.97;5034638;28;20424;-92
2024/02/09 08:12:29;;;;;;;0.60;0.60;;;;;;;9.63;81.78;96231.16;5020024;28;20037;-94
2024/02/09 08:14:56;;;;;;;0.60;0.60;;;;;;;9.70;83.09;96238.22;5025281;28;20044;-93
2024/02/09 08:17:21;;;;;;;0.65;0.65;;;;;;;9.50;85.25;96225.06;5008057;28;20091;-92
2024/02/09 08:19:47;;;;;;;0.65;0.65;;;;;;;9.30;86.42;96233.16;5044363;28;20037;-93
2024/02/09 08:22:12;;;;;;;0.70;0.70;;;;;;;9.39;86.21;96232.19;5006178;28;20048;-93
2024/02/09 08:24:38;;;;;;;0.70;0.70;;;;;;;9.31;87.46;96226.94;5044853;28;20055;-94
2024/02/09 08:27:04;;;;;;;0.60;0.60;;;;;;;9.19;88.69;96235.00;5026195;28;20029;-94
2024/02/09 08:29:32;;;;;;;;;;;;;;;9.14;89.03;96239.47;5025306;28;20296;-95
2024/02/09 08:31:58;;;;;;;0.70;0.70;;;;;;;9.15;89.23;96228.81;5029219;28;19913;-95
2024/02/09 08:34:23;;;;;;;0.70;0.70;;;;;;;9.16;89.00;96225.28;5045854;28;20060;-93
2024/02/09 08:36:50;;;;;;;0.70;0.70;;;;;;;9.17;89.28;96237.66;5025890;28;20067;-94
2024/02/09 08:39:15;;;;;;;0.70;0.70;;;;;;;9.14;89.83;96237.69;5042734;28;20068;-94
2024/02/09 08:41:41;;;;;;;0.70;0.70;;;;;;;9.17;90.54;96239.44;5044536;28;20038;-93
2024/02/09 08:44:07;;;;;;;0.70;0.70;;;;;;;9.19;90.34;96227.00;5025402;28;20041;-94
2024/02/09 08:46:35;;;;;;;0.70;0.70;;;;;;;9.31;90.20;96229.59;5005837;28;20041;-91
2024/02/09 08:49:01;;;;;;;0.77;0.77;;;;;;;9.40;90.09;96231.34;5026241;28;20029;-93
2024/02/09 08:51:26;;;;;;;0.70;0.70;;;;;;;9.44;90.34;96238.41;5021549;28;20102;-91
2024/02/09 08:53:53;;;;;;;0.70;0.70;;;;;;;9.47;89.53;96236.59;5023226;28;20025;-90
2024/02/09 08:56:19;;;;;;;0.70;0.70;;;;;;;9.62;89.70;96234.72;5045231;28;20040;-92
2024/02/09 08:58:46;;;;;;;0.60;0.60;;;;;;;9.67;89.04;96230.22;5028041;28;20038;-94
2024/02/09 09:01:11;;;;;;;0.60;0.60;;;;;;;9.83;88.62;96229.25;5009984;28;20297;-94
2024/02/09 09:03:37;;;;;;;0.70;0.70;;;;;;;10.02;87.39;96233.50;5026926;28;20518;-93
2024/02/09 09:06:04;;;;;;;0.60;0.60;;;;;;;10.13;87.45;96227.19;5028319;28;20031;-93
2024/02/09 09:08:30;;;;;;;;;;;;;;;10.51;86.33;96227.72;5027632;28;20042;-95
2024/02/09 09:10:56;;;;;;;0.60;0.60;;;;;;;10.77;84.76;96227.41;5045874;28;19913;-93
2024/02/09 09:13:22;;;;;;;0.60;0.60;;;;;;;10.63;82.03;96234.69;5008253;28;20109;-93
2024/02/09 09:15:48;;;;;;;0.52;0.52;;;;;;;10.71;83.24;96227.50;5020268;28;20124;-93
2024/02/09 09:18:13;;;;;;;0.50;0.50;;;;;;;10.80;83.35;96229.16;5032634;28;20113;-94
2024/02/09 09:20:39;;;;;;;0.50;0.50;;;;;;;10.77;82.68;96222.06;5025287;28;20108;-94
2024/02/09 09:23:05;;;;;;;0.60;0.60;;;;;;;10.83;81.51;96222.91;5040450;28;20120;-92
2024/02/09 09:25:30;;;;;;;0.50;0.50;;;;;;;10.77;80.82;96213.19;5028139;28;20030;-92
2024/02/09 09:27:57;;;;;;;0.50;0.50;;;;;;;10.77;81.55;96210.53;5029529;28;20029;-94
2024/02/09 09:30:23;;;;;;;0.60;0.60;;;;;;;10.76;82.13;96214.09;5029923;28;20060;-94
2024/02/09 09:32:49;;;;;;;0.50;0.50;;;;;;;10.81;81.49;96212.25;5008649;28;20029;-94
2024/02/09 09:35:15;;;;;;;0.60;0.60;;;;;;;10.98;82.05;96217.41;5029225;28;20033;-95
2024/02/09 09:37:41;;;;;;;0.60;0.60;;;;;;;10.98;79.97;96215.59;5045028;28;20033;-95
2024/02/09 09:40:10;;;;;;;0.60;0.60;;;;;;;11.28;79.90;96218.75;5025782;28;20037;-93
2024/02/09 09:42:36;;;;;;;0.60;0.60;;;;;;;11.33;79.26;96208.00;5032061;28;20021;-92
2024/02/09 09:45:08;;;;;;;0.60;0.60;;;;;;;11.47;78.46;96208.69;5052631;28;20042;-91
2024/02/09 09:47:37;;;;;;;0.60;0.60;;;;;;;11.62;76.43;96210.25;5026331;28;20076;-92
2024/02/09 09:50:08;;;;;;;0.60;0.60;;;;;;;11.81;75.47;96206.38;5018770;28;20052;-91
2024/02/09 09:52:38;;;;;;;0.50;0.50;;;;;;;11.72;75.38;96203.84;5034465;28;20030;-91
2024/02/09 09:55:05;;;;;;;0.50;0.50;;;;;;;11.64;74.29;96208.44;5027297;28;20051;-93
2024/02/09 09:57:31;;;;;;;0.60;0.60;;;;;;;11.76;75.01;96208.25;5026070;28;20033;-95
2024/02/09 09:59:57;;;;;;;0.50;0.50;;;;;;;11.82;73.90;96195.69;5038990;28;20056;-93
2024/02/09 10:02:22;;;;;;;0.50;0.50;;;;;;;12.18;72.87;96193.31;5047084;28;20026;-93
2024/02/09 10:04:58;;;;;;;0.50;0.50;;;;;;;12.24;71.63;96195.00;5012532;28;20029;-92
2024/02/09 10:07:25;;;;;;;0.50;0.50;;;;;;;12.22;70.15;96194.16;5015055;28;20037;-94
2024/02/09 10:09:54;;;;;;;0.50;0.50;;;;;;;12.48;70.24;96191.84;5012835;28;20029;-95
2024/02/09 10:12:25;;;;;;;0.50;0.50;;;;;;;12.79;69.38;96191.22;5023833;28;20172;-90
2024/02/09 10:14:52;;;;;;;0.50;0.50;;;;;;;12.35;69.78;96187.63;5022356;28;20080;-93
2024/02/09 10:17:17;;;;;;;0.57;0.57;;;;;;;12.59;69.24;96179.13;5026659;28;20041;-92
2024/02/09 10:19:44;;;;;;;0.50;0.50;;;;;;;12.75;69.87;96179.72;5035188;28;20044;-94
2024/02/09 10:22:09;;;;;;;0.60;0.60;;;;;;;12.58;70.57;96181.84;5036433;28;20488;-92
2024/02/09 10:24:40;;;;;;;0.50;0.50;;;;;;;12.71;69.87;96174.47;5020043;28;20033;-93
2024/02/09 10:27:08;;;;;;;0.50;0.50;;;;;;;12.77;69.68;96172.53;5021555;28;20124;-93
2024/02/09 10:29:33;;;;;;;0.50;0.50;;;;;;;12.87;69.74;96178.59;5033347;28;20040;-96
2024/02/09 10:31:59;;;;;;;0.40;0.40;;;;;;;12.86;69.01;96171.47;5039407;28;20124;-93
2024/02/09 10:34:24;;;;;;;0.40;0.40;;;;;;;12.91;68.45;96169.59;5019466;28;20029;-94
2024/02/09 10:36:53;;;;;;;0.40;0.40;;;;;;;13.09;67.24;96169.19;5037797;28;20037;-94
2024/02/09 10:39:19;;;;;;;0.40;0.40;;;;;;;12.87;68.34;96170.56;5038852;28;20095;-92
2024/02/09 10:41:48;;;;;;;0.40;0.40;;;;;;;12.91;68.47;96174.06;5035501;28;20034;-95
2024/02/09 10:44:18;;;;;;;0.40;0.40;;;;;;;12.59;69.74;96170.22;5035115;28;20367;-94
2024/02/09 10:46:46;;;;;;;0.40;0.40;;;;;;;12.58;69.96;96171.16;5021830;28;20037;-93
2024/02/09 10:49:14;;;;;;;0.40;0.40;;;;;;;12.42;70.06;96170.59;5025507;28;20041;-94
2024/02/09 10:51:40;;;;;;;0.50;0.50;;;;;;;12.49;70.79;96164.19;5043578;28;20029;-93
2024/02/09 10:54:17;;;;;;;0.50;0.50;;;;;;;12.42;70.98;96170.59;5004229;28;20471;-95
2024/02/09 10:56:43;;;;;;;;;;;;;;;12.39;70.88;96164.41;5020511;28;20063;-93
2024/02/09 10:59:09;;;;;;;0.50;0.50;;;;;;;12.47;70.12;96165.16;5036809;28;19916;-94
2024/02/09 11:01:36;;;;;;;0.50;0.50;;;;;;;12.55;70.29;96157.84;5022074;28;20717;-93
2024/02/09 11:04:02;;;;;;;0.50;0.50;;;;;;;12.48;69.45;96151.72;5022526;28;20076;-95
2024/02/09 11:06:28;;;;;;;0.50;0.50;;;;;;;12.39;69.92;96154.59;5024799;28;20458;-93
2024/02/09 11:08:56;;;;;;;0.50;0.50;;;;;;;12.45;70.64;96143.75;5041482;28;20033;-95
2024/02/09 11:11:27;;;;;;;0.50;0.50;;;;;;;12.53;70.50;96139.16;5012084;28;20169;-92
2024/02/09 11:14:12;;;;;;;0.50;0.50;;;;;;;12.60;69.40;96134.56;5044803;28;20458;-92
2024/02/09 11:16:46;;;;;;;0.40;0.40;;;;;;;12.83;69.06;96126.91;5034115;28;20487;-95
2024/02/09 11:19:18;;;;;;;0.50;0.50;;;;;;;12.79;67.42;96124.34;5021054;28;20511;-93
2024/02/09 11:21:57;;;;;;;0.50;0.50;;;;;;;12.75;67.81;96122.66;5031340;28;20063;-96
2024/02/09 11:24:26;;;;;;;0.50;0.50;;;;;;;12.82;67.39;96133.19;5032697;28;20041;-90
2024/02/09 11:26:53;;;;;;;0.40;0.40;;;;;;;12.73;67.74;96132.50;5047852;28;20037;-91
2024/02/09 11:29:19;;;;;;;0.40;0.40;;;;;;;12.72;68.29;96123.59;5048132;28;20024;-92
2024/02/09 11:31:49;;;;;;;0.40;0.40;;;;;;;12.70;67.81;96120.09;5029474;28;20508;-90
2024/02/09 11:34:16;;;;;;;0.40;0.40;;;;;;;12.78;68.47;96117.22;5015237;28;20037;-92
2024/02/09 11:36:43;;;;;;;0.40;0.40;;;;;;;12.83;66.98;96118.00;5038798;28;20053;-93
2024/02/09 11:39:10;;;;;;;0.50;0.50;;;;;;;12.85;66.86;96105.50;5052607;28;20045;-91
2024/02/09 11:41:39;;;;;;;0.50;0.50;;;;;;;12.89;65.87;96107.19;5054749;28;20045;-91
2024/02/09 11:44:08;;;;;;;0.40;0.40;;;;;;;13.00;66.08;96109.63;5048999;28;20042;-92
2024/02/09 11:46:36;;;;;;;0.40;0.40;;;;;;;13.04;67.23;96096.13;5024794;28;20037;-94
2024/02/09 11:49:07;;;;;;;0.40;0.40;;;;;;;12.97;65.65;96094.50;5042012;28;20127;-94
2024/02/09 11:51:40;;;;;;;0.43;0.43;;;;;;;12.97;65.74;96094.50;5034164;28;20055;-95
2024/02/09 11:54:13;;;;;;;0.40;0.40;;;;;;;12.99;66.11;96095.38;5031393;28;20112;-95
2024/02/09 11:56:40;;;;;;;0.40;0.40;;;;;;;13.01;65.93;96090.84;5013832;28;20056;-95
2024/02/09 11:59:09;;;;;;;0.40;0.40;;;;;;;12.94;65.26;96089.25;5046063;28;20104;-95
2024/02/09 12:01:35;;;;;;;0.40;0.40;;;;;;;12.90;66.47;96090.22;5030294;28;20071;-93
2024/02/09 12:04:00;;;;;;;0.50;0.50;;;;;;;12.85;65.76;96094.78;5014177;28;20033;-93
2024/02/09 12:06:27;;;;;;;0.50;0.50;;;;;;;12.85;66.04;96086.78;5026495;28;20064;-94
2024/02/09 12:08:53;;;;;;;0.43;0.43;;;;;;;12.84;65.43;96083.22;5005922;28;20021;-93
2024/02/09 12:11:21;;;;;;;0.40;0.40;;;;;;;12.89;65.66;96087.56;5009494;28;20041;-95
2024/02/09 12:13:47;;;;;;;0.40;0.40;;;;;;;12.92;65.01;96085.69;5012852;28;20053;-94
2024/02/09 12:16:17;;;;;;;0.50;0.50;;;;;;;12.92;64.56;96083.03;5028558;28;20100;-93
2024/02/09 12:18:45;;;;;;;0.40;0.40;;;;;;;12.87;65.94;96082.25;5043993;28;20041;-94
2024/02/09 12:21:11;;;;;;;0.40;0.40;;;;;;;12.81;65.32;96079.72;5027603;28;20034;-94
2024/02/09 12:23:38;;;;;;;0.40;0.40;;;;;;;12.86;64.43;96085.84;5041840;28;20102;-95
2024/02/09 12:26:20;;;;;;;0.40;0.40;;;;;;;12.73;66.73;96085.22;5013637;28;20041;-95
2024/02/09 12:28:46;;;;;;;0.40;0.40;;;;;;;12.57;67.64;96083.81;5027134;28;20022;-94
2024/02/09 12:31:14;;;;;;;0.40;0.40;;;;;;;12.48;69.56;96087.56;5032956;28;20037;-94
2024/02/09 12:33:48;;;;;;;0.43;0.43;;;;;;;12.42;68.84;96089.47;5029373;28;20031;-93
2024/02/09 12:36:19;;;;;;;0.40;0.40;;;;;;;12.69;66.70;96088.00;5025980;28;20136;-95
2024/02/09 12:38:44;;;;;;;0.40;0.40;;;;;;;12.60;66.92;96089.09;5027547;28;20053;-96
2024/02/09 12:41:12;;;;;;;0.40;0.40;;;;;;;12.53;65.71;96084.78;5039062;28;20557;-93
2024/02/09 12:43:38;;;;;;;0.40;0.40;;;;;;;12.27;69.68;96088.88;5024930;28;20048;-93
2024/02/09 12:46:07;;;;;;;0.50;0.50;;;;;;;12.18;67.21;96089.06;5043186;28;20519;-93
2024/02/09 12:48:38;;;;;;;0.50;0.50;;;;;;;11.95;69.78;96088.63;5038943;28;20231;-94
2024/02/09 12:51:05;;;;;;;0.50;0.50;;;;;;;11.80;75.27;96095.09;5044578;28;20261;-94
2024/02/09 12:53:33;;;;;;;0.40;0.40;;;;;;;11.55;78.38;96087.53;5044946;28;20066;-94
2024/02/09 12:55:59;;;;;;;0.50;0.50;;;;;;;11.70;71.93;96082.81;5030021;28;20123;-93
2024/02/09 12:58:24;;;;;;;0.40;0.40;;;;;;;11.63;74.39;96079.34;5045319;28;20722;-94
2024/02/09 13:00:52;;;;;;;0.50;0.50;;;;;;;11.29;75.73;96084.38;5043153;28;20055;-93
2024/02/09 13:03:20;;;;;;;0.50;0.50;;;;;;;11.42;74.50;96083.28;5026440;28;20041;-94
2024/02/09 13:05:48;;;;;;;0.50;0.50;;;;;;;11.28;74.91;96077.28;5027406;28;20037;-94
2024/02/09 13:08:14;;;;;;;0.57;0.57;;;;;;;11.10;74.46;96075.78;5028101;28;20050;-92
2024/02/09 13:10:39;;;;;;;0.50;0.50;;;;;;;10.96;77.04;96076.00;5011395;28;20040;-94
2024/02/09 13:13:08;;;;;;;0.50;0.50;;;;;;;10.88;77.67;96071.72;5045227;28;20043;-94
2024/02/09 13:15:35;;;;;;;0.50;0.50;;;;;;;10.84;80.87;96073.53;5032987;28;20039;-94
2024/02/09 13:18:08;;;;;;;0.50;0.50;;;;;;;10.86;79.74;96079.72;5025403;28;20041;-93
2024/02/09 13:20:35;;;;;;;0.50;0.50;;;;;;;10.84;82.46;96068.19;5041892;28;20346;-95
2024/02/09 13:23:01;;;;;;;0.60;0.60;;;;;;;10.87;84.86;96072.59;5027002;28;20048;-96
2024/02/09 13:25:32;;;;;;;0.50;0.50;;;;;;;10.74;85.52;96074.56;5048996;28;20120;-94
2024/02/09 13:27:59;;;;;;;0.50;0.50;;;;;;;10.55;88.55;96075.72;5036188;28;20044;-89
2024/02/09 13:30:28;;;;;;;0.60;0.60;;;;;;;10.43;89.66;96077.63;5019054;28;20067;-91
2024/02/09 13:32:55;;;;;;;0.50;0.50;;;;;;;10.40;90.13;96080.38;5021606;28;20041;-95
2024/02/09 13:35:22;;;;;;;0.52;0.52;;;;;;;10.39;90.65;96075.91;5042562;28;20047;-92
2024/02/09 13:37:49;;;;;;;0.60;0.60;;;;;;;10.38;91.06;96074.16;5006720;28;20037;-93
2024/02/09 13:40:16;;;;;;;0.50;0.50;;;;;;;10.38;91.19;96082.16;5041338;28;20060;-92
2024/02/09 13:42:45;;;;;;;0.50;0.50;;;;;;;10.46;88.80;96080.28;5030142;28;20146;-90
2024/02/09 13:45:15;;;;;;;0.60;0.60;;;;;;;10.38;89.19;96074.16;5051490;28;20036;-89
2024/02/09 13:50:25;;;;;;;0.60;0.60;;;;;;;10.38;89.27;96074.16;5326757;22;20046;-94
2024/02/09 13:52:53;;;;;;;0.60;0.60;;;;;;;10.31;89.97;96067.16;5042230;28;20041;-92
2024/02/09 13:55:21;;;;;;;0.60;0.60;;;;;;;10.26;89.71;96061.00;5037318;28;20095;-95
2024/02/09 13:57:54;;;;;;;0.70;0.70;;;;;;;10.23;89.30;96063.66;5027422;28;20206;-93
2024/02/09 14:00:21;;;;;;;0.60;0.60;;;;;;;10.21;90.98;96063.69;5032359;28;20045;-94
2024/02/09 14:02:47;;;;;;;0.70;0.70;;;;;;;10.30;88.98;96068.06;5021864;28;20017;-94
2024/02/09 14:05:15;;;;;;;0.60;0.60;;;;;;;10.30;89.65;96065.41;5029363;28;20226;-92
2024/02/09 14:07:42;;;;;;;0.60;0.60;;;;;;;10.35;90.49;96063.56;5012488;28;20431;-90
2024/02/09 14:10:12;;;;;;;0.60;0.60;;;;;;;10.32;89.76;96058.25;5044434;28;20025;-91
2024/02/09 14:12:39;;;;;;;0.60;0.60;;;;;;;10.33;89.88;96061.78;5038937;28;20061;-94
2024/02/09 14:15:06;;;;;;;0.60;0.60;;;;;;;10.29;90.00;96058.28;5025438;28;20026;-92
2024/02/09 14:17:34;;;;;;;0.60;0.60;;;;;;;10.28;89.71;96053.84;5041161;28;20048;-90
2024/02/09 14:20:00;;;;;;;0.60;0.60;;;;;;;10.27;91.09;96054.75;5032765;28;20616;-91
2024/02/09 14:22:25;;;;;;;0.60;0.60;;;;;;;10.22;90.83;96041.47;5048757;28;20022;-89
2024/02/09 14:24:51;;;;;;;0.60;0.60;;;;;;;10.29;89.82;96055.63;5037526;28;20038;-92
2024/02/09 14:35:24;;;;;;;0.60;0.60;;;;;;;10.23;89.02;96048.56;5294012;23;20080;-94
2024/02/09 14:37:51;;;;;;;0.60;0.60;;;;;;;10.17;89.24;96045.09;5027786;28;20040;-92
2024/02/09 14:40:17;;;;;;;0.60;0.60;;;;;;;10.15;90.31;96049.53;5025966;28;20068;-93
2024/02/09 14:42:43;;;;;;;0.50;0.50;;;;;;;10.15;89.81;96045.09;5034263;28;20045;-94
2024/02/09 14:45:10;;;;;;;0.60;0.60;;;;;;;10.11;90.77;96043.41;5040886;28;20118;-93
2024/02/09 14:47:36;;;;;;;;;;;;;;;10.12;91.32;96041.59;5037027;28;20097;-94
2024/02/09 14:58:10;;;;;;;0.60;0.60;;;;;;;9.92;93.34;96028.53;5205028;23;20059;-93
2024/02/09 15:00:37;;;;;;;0.50;0.50;;;;;;;9.92;93.57;96028.53;5054282;28;20136;-94
2024/02/09 15:03:02;;;;;;;0.60;0.60;;;;;;;9.90;92.96;96022.31;5024023;28;20041;-92
2024/02/09 15:05:29;;;;;;;0.60;0.60;;;;;;;9.86;93.68;96034.78;5045381;28;20777;-95
2024/02/09 15:07:58;;;;;;;0.57;0.57;;;;;;;9.81;93.29;96039.28;5039025;28;20029;-91
2024/02/09 15:10:25;;;;;;;0.50;0.50;;;;;;;9.80;93.97;96048.19;5046373;28;20120;-92
2024/02/09 15:12:52;;;;;;;0.60;0.60;;;;;;;9.88;94.07;96048.09;5040716;28;20055;-95
2024/02/09 15:15:21;;;;;;;;;;;;;;;9.90;93.97;96049.84;5037233;28;20033;-96